createdAt,value
2022-09-17T00:01:26.906Z,0.60
2022-09-17T00:03:56.536Z,1.00
2022-09-17T00:06:25.847Z,1.00
2022-09-17T00:08:55.071Z,1.00
2022-09-17T00:11:26.088Z,1.20
2022-09-17T00:13:55.050Z,1.10
2022-09-17T00:16:27.606Z,0.85
2022-09-17T00:18:56.176Z,0.65
2022-09-17T00:21:24.926Z,0.82
2022-09-17T00:23:55.958Z,1.00
2022-09-17T00:26:23.782Z,1.05
2022-09-17T00:28:54.087Z,0.80
2022-09-17T00:31:22.709Z,1.20
2022-09-17T00:33:52.694Z,1.10
2022-09-17T00:36:23.447Z,0.95
2022-09-17T00:38:51.764Z,0.80
2022-09-17T00:41:20.042Z,1.20
2022-09-17T00:43:50.853Z,0.95
2022-09-17T00:46:26.839Z,1.63
2022-09-17T00:48:58.824Z,0.90
2022-09-17T00:51:34.391Z,0.80
2022-09-17T00:54:04.686Z,0.68
2022-09-17T00:56:35.732Z,2.05
2022-09-17T00:59:04.218Z,1.08
2022-09-17T01:01:32.318Z,1.02
2022-09-17T01:04:01.392Z,0.77
2022-09-17T01:06:35.418Z,0.80
2022-09-17T01:09:16.913Z,0.95
2022-09-17T01:12:04.383Z,0.82
2022-09-17T01:14:46.114Z,1.17
2022-09-17T01:17:21.333Z,1.00
2022-09-17T01:20:06.196Z,1.20
2022-09-17T01:22:39.549Z,1.20
2022-09-17T01:25:22.912Z,0.90
2022-09-17T01:28:21.775Z,0.75
2022-09-17T01:31:04.739Z,0.90
2022-09-17T01:33:42.143Z,1.10
2022-09-17T01:36:21.568Z,0.85
2022-09-17T01:39:02.030Z,0.70
2022-09-17T01:41:37.486Z,0.70
2022-09-17T01:44:11.650Z,0.95
2022-09-17T01:46:47.263Z,0.88
2022-09-17T01:49:18.044Z,0.65
2022-09-17T01:51:50.826Z,0.85
2022-09-17T01:54:25.587Z,0.80
2022-09-17T01:56:57.838Z,1.10
2022-09-17T01:59:31.448Z,0.77
2022-09-17T02:02:04.546Z,0.80
2022-09-17T02:04:36.754Z,0.77
2022-09-17T02:07:16.056Z,0.70
2022-09-17T02:09:47.991Z,0.73
2022-09-17T02:12:21.511Z,1.15
2022-09-17T02:14:52.811Z,0.80
2022-09-17T02:17:28.126Z,1.10
2022-09-17T02:19:57.490Z,0.80
2022-09-17T02:22:30.838Z,0.85
2022-09-17T02:25:05.504Z,1.27
2022-09-17T02:27:45.892Z,0.70
2022-09-17T02:30:14.223Z,1.48
2022-09-17T02:32:43.334Z,1.30
2022-09-17T02:35:13.123Z,0.88
2022-09-17T02:37:41.015Z,1.73
2022-09-17T02:40:10.464Z,1.48
2022-09-17T02:42:53.446Z,0.90
2022-09-17T02:45:33.793Z,1.00
2022-09-17T02:48:20.941Z,0.85
2022-09-17T02:51:03.007Z,1.55
2022-09-17T02:53:38.676Z,1.40
2022-09-17T02:56:19.747Z,1.30
2022-09-17T02:58:53.627Z,1.70
2022-09-17T03:01:26.275Z,1.20
2022-09-17T03:03:56.612Z,1.30
2022-09-17T03:06:24.470Z,1.60
2022-09-17T03:08:54.278Z,1.02
2022-09-17T03:11:22.018Z,1.45
2022-09-17T03:13:50.155Z,1.00
2022-09-17T03:16:17.855Z,1.17
2022-09-17T03:18:45.730Z,1.30
2022-09-17T03:21:14.750Z,1.17
2022-09-17T03:23:42.506Z,1.13
2022-09-17T03:26:10.173Z,1.80
2022-09-17T03:28:37.924Z,1.40
2022-09-17T03:31:06.234Z,2.17
2022-09-17T03:33:34.573Z,1.20
2022-09-17T03:36:02.640Z,1.20
2022-09-17T03:38:34.018Z,1.20
2022-09-17T03:41:03.322Z,1.70
2022-09-17T03:43:30.994Z,1.80
2022-09-17T03:45:58.751Z,1.00
2022-09-17T03:48:26.546Z,1.40
2022-09-17T03:50:54.286Z,2.00
2022-09-17T03:53:21.974Z,1.42
2022-09-17T03:55:51.021Z,1.63
2022-09-17T03:58:18.679Z,1.80
2022-09-17T04:00:52.998Z,1.30
2022-09-17T04:03:21.308Z,1.60
2022-09-17T04:05:49.419Z,2.22
2022-09-17T04:08:17.199Z,1.27
2022-09-17T04:10:45.596Z,1.30
2022-09-17T04:13:16.142Z,1.70
2022-09-17T04:15:44.214Z,1.50
2022-09-17T04:18:12.047Z,1.50
2022-09-17T04:20:40.039Z,1.33
2022-09-17T04:23:07.975Z,1.30
2022-09-17T04:25:35.723Z,1.40
2022-09-17T04:28:03.774Z,1.10
2022-09-17T04:30:33.019Z,1.73
2022-09-17T04:33:00.794Z,1.05
2022-09-17T04:35:28.661Z,2.00
2022-09-17T04:37:57.046Z,1.75
2022-09-17T04:40:26.376Z,1.80
2022-09-17T04:42:54.905Z,1.60
2022-09-17T04:45:27.990Z,1.63
2022-09-17T04:47:57.412Z,2.00
2022-09-17T04:50:25.402Z,1.80
2022-09-17T04:52:53.361Z,2.00
2022-09-17T04:55:21.470Z,2.17
2022-09-17T04:57:50.286Z,2.00
2022-09-17T05:00:23.077Z,2.60
2022-09-17T05:02:57.277Z,2.00
2022-09-17T05:05:25.510Z,1.85
2022-09-17T05:07:53.231Z,1.67
2022-09-17T05:10:25.390Z,1.83
2022-09-17T05:12:54.710Z,1.58
2022-09-17T05:15:23.314Z,2.30
2022-09-17T05:17:51.210Z,1.98
2022-09-17T05:20:20.332Z,2.20
2022-09-17T05:22:49.441Z,2.83
2022-09-17T05:25:19.640Z,2.00
2022-09-17T05:27:47.390Z,2.03
2022-09-17T05:30:15.322Z,2.85
2022-09-17T05:32:43.107Z,2.60
2022-09-17T05:35:11.835Z,2.85
2022-09-17T05:37:40.836Z,2.38
2022-09-17T05:40:10.142Z,2.85
2022-09-17T05:42:38.719Z,2.33
2022-09-17T05:45:07.813Z,2.75
2022-09-17T05:47:36.146Z,2.40
2022-09-17T05:50:04.439Z,2.58
2022-09-17T05:52:32.478Z,2.13
2022-09-17T05:55:01.507Z,2.10
2022-09-17T05:57:30.235Z,2.40
2022-09-17T05:59:57.907Z,2.72
2022-09-17T06:02:25.662Z,2.47
2022-09-17T06:04:53.359Z,2.45
2022-09-17T06:07:21.119Z,2.35
2022-09-17T06:09:51.214Z,3.22
2022-09-17T06:12:20.526Z,2.90
2022-09-17T06:14:50.033Z,2.88
2022-09-17T06:17:22.150Z,2.33
2022-09-17T06:19:50.487Z,2.60
2022-09-17T06:22:22.340Z,2.40
2022-09-17T06:24:50.034Z,2.97
2022-09-17T06:27:17.778Z,2.50
2022-09-17T06:29:47.725Z,3.50
2022-09-17T06:32:16.915Z,3.30
2022-09-17T06:34:44.653Z,2.33
2022-09-17T06:37:12.419Z,3.15
2022-09-17T06:39:40.447Z,3.10
2022-09-17T06:42:08.693Z,3.28
2022-09-17T06:44:36.407Z,3.15
2022-09-17T06:47:05.619Z,3.25
2022-09-17T06:49:33.362Z,3.03
2022-09-17T06:52:01.616Z,2.88
2022-09-17T06:54:29.410Z,3.88
2022-09-17T06:56:57.092Z,2.90
2022-09-17T06:59:25.200Z,3.40
2022-09-17T07:01:53.063Z,5.30
2022-09-17T07:04:22.116Z,4.07
2022-09-17T07:06:49.835Z,3.55
2022-09-17T07:09:17.500Z,3.42
2022-09-17T07:11:46.310Z,3.60
2022-09-17T07:14:14.088Z,3.70
2022-09-17T07:16:41.815Z,4.50
2022-09-17T07:19:11.123Z,3.92
2022-09-17T07:21:40.308Z,3.63
2022-09-17T07:24:08.232Z,3.65
2022-09-17T07:26:35.935Z,3.47
2022-09-17T07:29:03.739Z,3.70
2022-09-17T07:31:34.830Z,4.40
2022-09-17T07:34:02.610Z,3.90
2022-09-17T07:36:30.351Z,4.35
2022-09-17T07:38:59.438Z,3.63
2022-09-17T07:41:27.208Z,4.25
2022-09-17T07:43:55.475Z,4.60
2022-09-17T07:46:23.392Z,3.70
2022-09-17T07:48:51.858Z,4.00
2022-09-17T07:51:21.713Z,3.60
2022-09-17T07:53:52.349Z,3.50
2022-09-17T07:56:21.526Z,4.47
2022-09-17T07:58:49.641Z,3.30
2022-09-17T08:01:18.364Z,3.40
2022-09-17T08:03:50.442Z,3.22
2022-09-17T08:06:21.297Z,3.13
2022-09-17T08:08:52.706Z,3.95
2022-09-17T08:11:44.545Z,3.88
2022-09-17T08:14:14.548Z,3.72
2022-09-17T08:16:42.858Z,3.33
2022-09-17T08:19:10.793Z,3.20
2022-09-17T08:21:39.294Z,3.80
2022-09-17T08:24:07.278Z,3.33
2022-09-17T08:26:36.343Z,3.20
2022-09-17T08:29:04.414Z,3.60
2022-09-17T08:31:33.311Z,3.58
2022-09-17T08:34:01.259Z,3.25
2022-09-17T08:36:29.344Z,3.40
2022-09-17T08:38:58.484Z,2.50
2022-09-17T08:41:36.416Z,3.05
2022-09-17T08:44:25.260Z,2.60
2022-09-17T08:47:00.059Z,2.80
2022-09-17T08:49:34.911Z,3.20
2022-09-17T08:52:20.502Z,3.50
2022-09-17T08:54:57.823Z,2.45
2022-09-17T08:57:31.218Z,2.60
2022-09-17T09:00:05.670Z,3.08
2022-09-17T09:02:48.877Z,2.50
2022-09-17T09:05:20.779Z,2.40
2022-09-17T09:07:52.490Z,2.90
2022-09-17T09:10:24.578Z,3.65
2022-09-17T09:12:53.686Z,2.20
2022-09-17T09:15:35.542Z,2.00
2022-09-17T09:18:13.855Z,2.10
2022-09-17T09:20:49.038Z,2.20
2022-09-17T09:23:24.516Z,2.45
2022-09-17T09:25:56.020Z,1.98
2022-09-17T09:28:43.003Z,2.60
2022-09-17T09:31:28.612Z,2.28
2022-09-17T09:33:57.295Z,2.53
2022-09-17T09:36:30.759Z,3.55
2022-09-17T09:39:03.394Z,2.22
2022-09-17T09:41:37.878Z,2.30
2022-09-17T09:44:10.988Z,2.70
2022-09-17T09:46:52.032Z,2.40
2022-09-17T09:49:30.712Z,2.45
2022-09-17T09:52:14.694Z,2.53
2022-09-17T09:54:53.664Z,2.47
2022-09-17T09:57:32.083Z,3.40
2022-09-17T10:00:24.595Z,2.35
2022-09-17T10:02:57.553Z,2.35
2022-09-17T10:05:25.617Z,1.90
2022-09-17T10:07:53.928Z,2.90
2022-09-17T10:10:21.773Z,3.05
2022-09-17T10:12:49.543Z,2.30
2022-09-17T10:15:26.451Z,2.30
2022-09-17T10:18:16.666Z,2.13
2022-09-17T10:20:51.339Z,1.60
2022-09-17T10:23:19.879Z,2.70
2022-09-17T10:25:48.657Z,1.47
2022-09-17T10:28:31.862Z,1.50
2022-09-17T10:31:05.160Z,1.60
2022-09-17T10:33:40.799Z,1.80
2022-09-17T10:36:12.966Z,1.30
2022-09-17T10:38:42.818Z,2.90
2022-09-17T10:41:13.610Z,1.50
2022-09-17T10:43:42.317Z,1.07
2022-09-17T10:46:14.810Z,1.30
2022-09-17T10:48:47.515Z,1.77
2022-09-17T10:51:24.038Z,1.57
2022-09-17T10:54:18.635Z,1.30
2022-09-17T10:56:54.187Z,1.40
2022-09-17T10:59:38.986Z,1.67
2022-09-17T11:02:26.871Z,2.20
2022-09-17T11:05:05.299Z,1.97
2022-09-17T11:07:40.229Z,1.30
2022-09-17T11:10:15.915Z,2.43
2022-09-17T11:12:59.699Z,1.33
2022-09-17T11:15:40.467Z,1.50
2022-09-17T11:18:28.451Z,1.00
2022-09-17T11:21:17.194Z,1.53
2022-09-17T11:24:08.905Z,1.30
2022-09-17T11:26:42.722Z,1.03
2022-09-17T11:29:38.150Z,1.40
2022-09-17T11:32:15.700Z,1.47
2022-09-17T11:34:46.531Z,1.17
2022-09-17T11:37:21.576Z,1.77
2022-09-17T11:39:55.082Z,1.50
2022-09-17T11:42:28.621Z,1.70
2022-09-17T11:45:00.008Z,1.98
2022-09-17T11:47:34.774Z,1.30
2022-09-17T11:50:06.922Z,1.70
2022-09-17T11:52:41.626Z,1.95
2022-09-17T11:55:21.771Z,1.33
2022-09-17T11:57:53.575Z,1.25
2022-09-17T12:00:23.875Z,1.83
2022-09-17T12:02:59.067Z,1.40
2022-09-17T12:05:32.322Z,1.67
2022-09-17T12:08:14.488Z,1.23
2022-09-17T12:10:50.388Z,1.75
2022-09-17T12:13:30.490Z,1.70
2022-09-17T12:16:07.513Z,1.38
2022-09-17T12:18:47.511Z,1.90
2022-09-17T12:21:19.110Z,1.13
2022-09-17T12:23:52.174Z,0.95
2022-09-17T12:26:35.446Z,1.35
2022-09-17T12:29:14.891Z,1.17
2022-09-17T12:31:50.452Z,0.98
2022-09-17T12:34:30.238Z,1.20
2022-09-17T12:37:09.406Z,1.23
2022-09-17T12:39:59.970Z,1.25
2022-09-17T12:42:42.240Z,1.05
2022-09-17T12:45:28.480Z,1.30
2022-09-17T12:48:12.458Z,1.05
2022-09-17T12:50:53.216Z,1.48
2022-09-17T12:53:29.739Z,0.93
2022-09-17T12:56:06.319Z,1.10
2022-09-17T12:58:48.023Z,1.48
2022-09-17T13:01:20.848Z,1.40
2022-09-17T13:03:56.591Z,2.00
2022-09-17T13:06:42.534Z,1.40
2022-09-17T13:09:39.542Z,1.35
2022-09-17T13:12:20.866Z,1.10
2022-09-17T13:15:02.361Z,0.98
2022-09-17T13:17:36.980Z,1.00
2022-09-17T13:20:15.632Z,1.15
2022-09-17T13:22:46.802Z,1.08
2022-09-17T13:25:19.208Z,0.93
2022-09-17T13:27:50.676Z,1.20
2022-09-17T13:30:20.937Z,1.10
2022-09-17T13:32:52.085Z,1.67
2022-09-17T13:35:50.745Z,1.00
2022-09-17T13:38:23.659Z,0.95
2022-09-17T13:40:53.140Z,1.90
2022-09-17T13:43:27.819Z,1.20
2022-09-17T13:46:15.820Z,1.27
2022-09-17T13:48:55.444Z,1.30
2022-09-17T13:51:47.497Z,1.00
2022-09-17T13:54:17.822Z,1.27
2022-09-17T13:56:48.140Z,1.20
2022-09-17T13:59:20.152Z,1.10
2022-09-17T14:02:04.771Z,1.15
2022-09-17T14:04:48.734Z,1.67
2022-09-17T14:07:34.689Z,0.90
2022-09-17T14:10:03.359Z,1.10
2022-09-17T14:12:54.639Z,1.17
2022-09-17T14:15:55.508Z,1.33
2022-09-17T14:18:56.042Z,1.15
2022-09-17T14:21:28.671Z,1.05
2022-09-17T14:23:59.368Z,1.00
2022-09-17T14:26:40.554Z,1.80
2022-09-17T14:29:19.139Z,1.23
2022-09-17T14:31:48.719Z,1.35
2022-09-17T14:34:22.065Z,1.50
2022-09-17T14:36:51.483Z,1.17
2022-09-17T14:39:23.441Z,1.20
2022-09-17T14:41:52.834Z,1.77
2022-09-17T14:44:22.503Z,1.50
2022-09-17T14:46:58.874Z,1.08
2022-09-17T14:49:28.278Z,1.25
2022-09-17T14:51:57.033Z,1.40
2022-09-17T14:54:27.074Z,1.17
2022-09-17T14:56:58.044Z,1.10
2022-09-17T14:59:43.864Z,1.25
2022-09-17T15:02:33.706Z,0.77
2022-09-17T15:05:02.469Z,2.33
2022-09-17T15:07:30.614Z,1.00
2022-09-17T15:10:08.806Z,1.35
2022-09-17T15:12:38.403Z,1.10
2022-09-17T15:15:06.744Z,1.15
2022-09-17T15:17:36.408Z,1.30
2022-09-17T15:20:07.780Z,0.90
2022-09-17T15:22:40.036Z,1.08
2022-09-17T15:25:11.254Z,0.90
2022-09-17T15:27:41.770Z,0.82
2022-09-17T15:30:14.540Z,0.80
2022-09-17T15:32:49.722Z,0.90
2022-09-17T15:35:21.954Z,1.50
2022-09-17T15:40:43.080Z,0.70
2022-09-17T15:43:19.404Z,1.33
2022-09-17T15:45:47.228Z,1.10
2022-09-17T15:48:35.250Z,1.40
2022-09-17T15:51:05.328Z,1.42
2022-09-17T15:53:34.778Z,1.52
2022-09-17T15:56:06.778Z,0.93
2022-09-17T15:58:38.820Z,1.42
2022-09-17T16:01:36.630Z,1.70
2022-09-17T16:04:23.054Z,1.20
2022-09-17T16:06:57.731Z,1.10
2022-09-17T16:09:41.818Z,1.48
2022-09-17T16:12:12.494Z,1.75
2022-09-17T16:14:43.451Z,2.13
2022-09-17T16:17:23.083Z,2.20
2022-09-17T16:19:54.808Z,1.65
2022-09-17T16:22:22.896Z,1.60
2022-09-17T16:24:52.857Z,1.50
2022-09-17T16:27:23.467Z,1.15
2022-09-17T16:30:05.535Z,1.20
2022-09-17T16:32:33.318Z,1.10
2022-09-17T16:35:02.335Z,0.82
2022-09-17T16:37:30.051Z,1.50
2022-09-17T16:39:57.810Z,1.10
2022-09-17T16:42:25.471Z,1.55
2022-09-17T16:44:53.698Z,1.02
2022-09-17T16:47:21.397Z,0.95
2022-09-17T16:49:49.096Z,0.93
2022-09-17T16:52:18.664Z,0.85
2022-09-17T16:54:46.529Z,0.77
2022-09-17T16:57:14.363Z,0.60
2022-09-17T16:59:42.082Z,0.60
2022-09-17T17:02:10.769Z,0.60
2022-09-17T17:04:38.642Z,0.68
2022-09-17T17:07:06.430Z,0.60
2022-09-17T17:09:35.586Z,0.70
2022-09-17T17:12:03.731Z,0.80
2022-09-17T17:14:31.441Z,1.00
2022-09-17T17:16:59.759Z,0.75
2022-09-17T17:19:27.600Z,0.80
2022-09-17T17:21:55.331Z,0.60
2022-09-17T17:24:23.117Z,0.88
2022-09-17T17:26:52.242Z,0.50
2022-09-17T17:29:19.956Z,0.60
2022-09-17T17:31:49.345Z,0.50
2022-09-17T17:34:17.299Z,0.80
2022-09-17T17:36:50.417Z,0.70
2022-09-17T17:39:18.199Z,0.85
2022-09-17T17:41:51.049Z,0.65
2022-09-17T17:44:22.308Z,0.60
2022-09-17T17:46:53.651Z,0.80
2022-09-17T17:49:21.426Z,0.95
2022-09-17T17:51:49.169Z,0.95
2022-09-17T17:54:17.403Z,0.80
2022-09-17T17:56:45.075Z,0.75
2022-09-17T17:59:12.771Z,0.70
2022-09-17T18:01:41.887Z,0.80
2022-09-17T18:04:09.759Z,0.63
2022-09-17T18:06:37.463Z,0.75
2022-09-17T18:09:05.984Z,0.50
2022-09-17T18:11:34.888Z,0.60
2022-09-17T18:14:02.751Z,0.60
2022-09-17T18:16:31.066Z,0.60
2022-09-17T18:19:00.372Z,1.20
2022-09-17T18:21:28.267Z,0.70
2022-09-17T18:23:57.950Z,0.85
2022-09-17T18:26:28.027Z,0.50
2022-09-17T18:28:56.255Z,0.60
2022-09-17T18:31:26.445Z,0.70
2022-09-17T18:33:57.523Z,0.55
2022-09-17T18:36:27.442Z,0.70
2022-09-17T18:39:03.498Z,0.70
2022-09-17T18:41:40.703Z,0.80
2022-09-17T18:44:09.178Z,0.90
2022-09-17T18:46:37.775Z,0.70
2022-09-17T18:49:06.229Z,0.50
2022-09-17T18:51:35.275Z,0.80
2022-09-17T18:54:03.751Z,0.88
2022-09-17T18:56:33.306Z,0.80
2022-09-17T18:59:05.661Z,1.10
2022-09-17T19:01:35.866Z,0.70
2022-09-17T19:04:04.958Z,0.60
2022-09-17T19:06:32.851Z,0.63
2022-09-17T19:09:03.076Z,0.70
2022-09-17T19:11:31.185Z,0.60
2022-09-17T19:13:59.167Z,0.70
2022-09-17T19:16:27.034Z,0.70
2022-09-17T19:18:55.146Z,0.70
2022-09-17T19:21:23.255Z,1.00
2022-09-17T19:23:52.798Z,0.88
2022-09-17T19:26:23.990Z,0.50
2022-09-17T19:28:53.583Z,0.80
2022-09-17T19:31:21.513Z,0.80
2022-09-17T19:33:50.349Z,1.15
2022-09-17T19:36:20.521Z,0.95
2022-09-17T19:38:53.390Z,0.77
2022-09-17T19:41:23.960Z,1.33
2022-09-17T19:43:52.527Z,1.00
2022-09-17T19:46:22.217Z,0.60
2022-09-17T19:48:52.354Z,0.68
2022-09-17T19:51:20.758Z,1.10
2022-09-17T19:53:48.493Z,0.68
2022-09-17T19:56:19.056Z,0.70
2022-09-17T19:58:48.661Z,0.80
2022-09-17T20:01:17.194Z,0.60
2022-09-17T20:03:46.377Z,1.10
2022-09-17T20:06:16.742Z,0.85
2022-09-17T20:08:47.277Z,0.90
2022-09-17T20:11:16.276Z,1.55
2022-09-17T20:13:45.229Z,1.00
2022-09-17T20:16:15.970Z,0.70
2022-09-17T20:18:45.202Z,0.65
2022-09-17T20:21:15.498Z,0.70
2022-09-17T20:23:45.975Z,0.98
2022-09-17T20:26:15.718Z,0.73
2022-09-17T20:28:44.770Z,0.70
2022-09-17T20:31:16.075Z,1.13
2022-09-17T20:33:44.735Z,1.00
2022-09-17T20:36:14.188Z,1.02
2022-09-17T20:41:31.467Z,0.93
2022-09-17T20:43:59.530Z,1.10
2022-09-17T20:46:31.485Z,1.40
2022-09-17T20:48:59.509Z,1.08
2022-09-17T20:51:30.908Z,0.70
2022-09-17T20:53:58.757Z,1.40
2022-09-17T20:56:28.706Z,1.50
2022-09-17T20:59:04.099Z,0.70
2022-09-17T21:01:34.244Z,0.77
2022-09-17T21:04:02.860Z,0.95
2022-09-17T21:06:32.098Z,0.73
2022-09-17T21:09:01.022Z,1.98
2022-09-17T21:11:30.815Z,0.80
2022-09-17T21:13:59.982Z,1.80
2022-09-17T21:16:27.897Z,1.15
2022-09-17T21:19:01.654Z,0.82
2022-09-17T21:21:29.967Z,1.75
2022-09-17T21:24:00.888Z,1.00
2022-09-17T21:26:29.390Z,1.30
2022-09-17T21:28:57.960Z,0.88
2022-09-17T21:31:31.665Z,0.80
2022-09-17T21:34:03.025Z,0.90
2022-09-17T21:36:33.446Z,0.90
2022-09-17T21:39:03.145Z,1.33
2022-09-17T21:41:31.662Z,2.17
2022-09-17T21:43:59.600Z,1.17
2022-09-17T21:46:28.526Z,0.90
2022-09-17T21:48:57.719Z,1.00
2022-09-17T21:51:30.221Z,0.88
2022-09-17T21:54:00.962Z,1.10
2022-09-17T21:56:29.955Z,1.85
2022-09-17T21:58:59.706Z,0.93
2022-09-17T22:01:30.901Z,1.13
2022-09-17T22:03:59.578Z,0.88
2022-09-17T22:06:30.204Z,0.70
2022-09-17T22:08:59.662Z,0.90
2022-09-17T22:11:29.758Z,1.20
2022-09-17T22:14:00.623Z,1.10
2022-09-17T22:16:30.574Z,1.10
2022-09-17T22:18:59.484Z,1.13
2022-09-17T22:21:29.974Z,1.00
2022-09-17T22:24:00.639Z,0.88
2022-09-17T22:26:31.737Z,0.75
2022-09-17T22:29:02.006Z,0.85
2022-09-17T22:31:29.852Z,1.00
2022-09-17T22:33:57.778Z,0.90
2022-09-17T22:36:29.194Z,1.17
2022-09-17T22:38:58.578Z,0.88
2022-09-17T22:41:28.330Z,0.80
2022-09-17T22:43:57.006Z,0.80
2022-09-17T22:46:27.033Z,1.02
2022-09-17T22:48:55.459Z,0.95
2022-09-17T22:51:23.590Z,0.85
2022-09-17T22:53:52.752Z,1.77
2022-09-17T22:56:23.166Z,0.95
2022-09-17T22:58:51.462Z,0.90
2022-09-17T23:01:25.769Z,0.80
2022-09-17T23:03:53.739Z,0.80
2022-09-17T23:06:23.653Z,0.68
2022-09-17T23:08:53.498Z,0.90
2022-09-17T23:11:24.073Z,0.70
2022-09-17T23:13:52.613Z,0.80
2022-09-17T23:16:21.014Z,1.48
2022-09-17T23:18:48.737Z,1.17
2022-09-17T23:21:18.563Z,0.70
2022-09-17T23:23:48.014Z,0.85
2022-09-17T23:26:18.850Z,0.70
2022-09-17T23:28:46.595Z,0.70
2022-09-17T23:31:16.510Z,1.40
2022-09-17T23:33:45.118Z,0.90
2022-09-17T23:36:14.302Z,0.85
2022-09-17T23:38:43.771Z,1.00
2022-09-17T23:41:14.597Z,0.60
2022-09-17T23:43:44.286Z,0.90
2022-09-17T23:46:12.121Z,0.88
2022-09-17T23:48:40.142Z,1.35
2022-09-17T23:51:08.907Z,0.70
2022-09-17T23:53:37.398Z,0.90
2022-09-17T23:56:10.935Z,0.57
2022-09-17T23:58:38.591Z,0.90
